Los Angeles, California
Traffic Map
Current Weather Conditions
Los Angeles, California
Scattered Clouds
Scattered Clouds
66°
Feels Like: 66°
Wind Chill: 66° Ceiling: Unl
Heat Index: 66° Visibility: 10mi
Dew Point: 49° Wind: 3mph
Humidity: 54% Direction: ° ()
Pressure: 29.99in Gusts: 0mph
Raw Report DataKCQT 251747Z AUTO VRB03KT 10SM SCT040 19/09 A2999 RMK AO2 SLP154 T01890094 10189 20139 53003
Traffic Incident Summary
Active as of:
Severity:
Category:
InformationThere was an issue retrieving the traffic information for this location. Please try a different location or try again shortly.
Advertisements
Track Severe Weather on mobile